createdAt,value
2019-03-04T00:01:40.487Z,12.50
2019-03-04T00:04:09.138Z,12.77
2019-03-04T00:06:37.843Z,12.87
2019-03-04T00:09:06.817Z,13.07
2019-03-04T00:11:35.493Z,13.13
2019-03-04T00:14:04.159Z,11.93
2019-03-04T00:16:32.854Z,13.47
2019-03-04T00:19:01.547Z,12.53
2019-03-04T00:21:30.217Z,13.97
2019-03-04T00:23:58.884Z,11.97
2019-03-04T00:26:27.579Z,12.07
2019-03-04T00:28:56.289Z,11.80
2019-03-04T00:31:25.864Z,12.00
2019-03-04T00:33:54.553Z,11.43
2019-03-04T00:36:23.238Z,10.97
2019-03-04T00:38:51.905Z,11.07
2019-03-04T00:41:20.627Z,11.83
2019-03-04T00:43:49.301Z,13.93
2019-03-04T00:46:17.961Z,11.77
2019-03-04T00:48:46.700Z,12.30
2019-03-04T00:51:15.373Z,10.90
2019-03-04T00:53:44.047Z,10.67
2019-03-04T00:56:12.725Z,11.33
2019-03-04T00:58:41.403Z,9.67
2019-03-04T01:01:10.090Z,10.30
2019-03-04T01:03:38.753Z,10.20
2019-03-04T01:06:07.433Z,10.03
2019-03-04T01:08:36.106Z,10.03
2019-03-04T01:11:06.276Z,9.13
2019-03-04T01:13:34.949Z,10.27
2019-03-04T01:16:03.759Z,11.20
2019-03-04T01:18:32.407Z,11.57
2019-03-04T01:21:01.081Z,10.87
2019-03-04T01:23:29.754Z,14.40
2019-03-04T01:25:58.434Z,13.37
2019-03-04T01:28:27.106Z,13.00
2019-03-04T01:30:55.912Z,13.20
2019-03-04T01:33:24.581Z,13.73
2019-03-04T01:35:53.255Z,11.67
2019-03-04T01:38:21.951Z,10.63
2019-03-04T01:40:50.750Z,10.77
2019-03-04T01:43:19.470Z,10.47
2019-03-04T01:45:48.143Z,9.90
2019-03-04T01:48:16.808Z,9.73
2019-03-04T01:50:45.468Z,9.70
2019-03-04T01:53:14.217Z,11.07
2019-03-04T01:55:42.947Z,9.63
2019-03-04T01:58:11.717Z,10.30
2019-03-04T02:00:40.459Z,8.77
2019-03-04T02:03:09.131Z,9.60
2019-03-04T02:05:37.896Z,9.10
2019-03-04T02:08:06.576Z,10.03
2019-03-04T02:10:35.240Z,8.17
2019-03-04T02:13:03.905Z,9.63
2019-03-04T02:15:32.592Z,8.27
2019-03-04T02:18:01.301Z,8.13
2019-03-04T02:20:29.961Z,9.27
2019-03-04T02:22:58.676Z,9.00
2019-03-04T02:25:42.300Z,9.63
2019-03-04T02:28:10.963Z,8.97
2019-03-04T02:30:39.879Z,9.23
2019-03-04T02:33:08.554Z,10.03
2019-03-04T02:35:37.230Z,10.37
2019-03-04T02:38:05.889Z,11.10
2019-03-04T02:40:34.604Z,10.50
2019-03-04T02:43:03.262Z,10.43
2019-03-04T02:45:31.937Z,10.10
2019-03-04T02:48:00.635Z,10.80
2019-03-04T02:50:29.305Z,11.17
2019-03-04T02:52:57.982Z,11.10
2019-03-04T02:55:26.638Z,10.23
2019-03-04T02:57:58.137Z,10.67
2019-03-04T03:00:26.798Z,9.33
2019-03-04T03:02:55.484Z,8.70
2019-03-04T03:05:24.156Z,9.03
2019-03-04T03:07:52.829Z,8.40
2019-03-04T03:10:21.502Z,8.00
2019-03-04T03:12:50.170Z,7.10
2019-03-04T03:15:20.395Z,8.17
2019-03-04T03:17:49.054Z,8.13
2019-03-04T03:20:17.879Z,9.13
2019-03-04T03:22:46.609Z,9.23
2019-03-04T03:25:17.940Z,7.83
2019-03-04T03:27:46.643Z,8.20
2019-03-04T03:30:23.589Z,8.27
2019-03-04T03:32:52.266Z,7.97
2019-03-04T03:35:20.933Z,8.63
2019-03-04T03:37:49.608Z,7.30
2019-03-04T03:40:21.825Z,8.10
2019-03-04T03:42:50.602Z,7.07
2019-03-04T03:45:19.314Z,7.90
2019-03-04T03:47:48.076Z,7.20
2019-03-04T03:50:17.794Z,7.40
2019-03-04T03:52:46.878Z,6.87
2019-03-04T03:55:18.692Z,7.93
2019-03-04T03:57:47.378Z,6.57
2019-03-04T04:00:20.780Z,7.27
2019-03-04T04:02:49.479Z,6.70
2019-03-04T04:05:18.156Z,6.70
2019-03-04T04:07:46.825Z,6.60
2019-03-04T04:10:20.374Z,8.13
2019-03-04T04:12:49.040Z,7.47
2019-03-04T04:15:19.340Z,7.83
2019-03-04T04:17:48.125Z,7.87
2019-03-04T04:20:16.798Z,8.03
2019-03-04T04:22:45.576Z,8.40
2019-03-04T04:25:15.131Z,9.00
2019-03-04T04:27:43.803Z,7.83
2019-03-04T04:30:20.553Z,7.67
2019-03-04T04:32:49.211Z,9.57
2019-03-04T04:35:17.889Z,7.83
2019-03-04T04:37:46.564Z,7.57
2019-03-04T04:40:15.318Z,7.77
2019-03-04T04:42:44.192Z,8.37
2019-03-04T04:45:12.954Z,7.63
2019-03-04T04:47:43.055Z,7.87
2019-03-04T04:50:17.202Z,7.63
2019-03-04T04:52:45.873Z,8.10
2019-03-04T04:55:14.538Z,8.43
2019-03-04T04:57:43.246Z,8.00
2019-03-04T05:00:17.322Z,8.67
2019-03-04T05:02:45.987Z,8.00
2019-03-04T05:05:14.760Z,8.80
2019-03-04T05:07:43.432Z,8.53
2019-03-04T05:10:18.019Z,7.67
2019-03-04T05:12:46.783Z,8.90
2019-03-04T05:15:16.687Z,10.07
2019-03-04T05:17:45.336Z,8.20
2019-03-04T05:20:16.683Z,9.20
2019-03-04T05:22:45.355Z,9.17
2019-03-04T05:25:14.027Z,10.27
2019-03-04T05:27:42.727Z,9.50
2019-03-04T05:30:14.591Z,8.87
2019-03-04T05:32:43.352Z,9.07
2019-03-04T05:35:12.060Z,10.53
2019-03-04T05:37:40.723Z,9.87
2019-03-04T05:40:18.261Z,9.23
2019-03-04T05:42:47.070Z,9.90
2019-03-04T05:45:16.983Z,9.33
2019-03-04T05:47:45.652Z,9.27
2019-03-04T05:50:22.858Z,10.07
2019-03-04T05:52:51.646Z,10.30
2019-03-04T05:55:20.329Z,9.60
2019-03-04T05:57:48.994Z,11.20
2019-03-04T06:00:20.865Z,10.20
2019-03-04T06:02:50.990Z,10.87
2019-03-04T06:05:19.674Z,11.77
2019-03-04T06:07:49.911Z,12.43
2019-03-04T06:10:18.615Z,10.87
2019-03-04T06:12:47.282Z,10.90
2019-03-04T06:15:20.859Z,10.80
2019-03-04T06:17:49.536Z,11.20
2019-03-04T06:20:20.024Z,12.20
2019-03-04T06:22:48.682Z,11.70
2019-03-04T06:25:22.822Z,12.03
2019-03-04T06:27:51.482Z,12.17
2019-03-04T06:30:22.165Z,11.53
2019-03-04T06:32:53.191Z,11.47
2019-03-04T06:35:21.879Z,11.40
2019-03-04T06:37:50.618Z,11.47
2019-03-04T06:40:21.073Z,11.53
2019-03-04T06:42:56.158Z,10.70
2019-03-04T06:45:24.811Z,11.50
2019-03-04T06:47:53.490Z,10.40
2019-03-04T06:50:41.736Z,11.17
2019-03-04T06:53:10.427Z,10.27
2019-03-04T06:56:03.156Z,10.47
2019-03-04T06:58:43.740Z,10.20
2019-03-04T07:01:15.222Z,10.27
2019-03-04T07:03:43.918Z,11.07
2019-03-04T07:06:12.608Z,12.60
2019-03-04T07:08:44.206Z,11.90
2019-03-04T07:11:12.894Z,12.10
2019-03-04T07:13:41.568Z,11.10
2019-03-04T07:16:10.299Z,11.93
2019-03-04T07:18:38.972Z,12.40
2019-03-04T07:21:07.657Z,11.80
2019-03-04T07:23:36.384Z,11.93
2019-03-04T07:26:05.218Z,12.00
2019-03-04T07:28:33.946Z,11.83
2019-03-04T07:31:02.638Z,11.97
2019-03-04T07:33:31.375Z,11.37
2019-03-04T07:36:00.110Z,12.13
2019-03-04T07:38:37.749Z,12.37
2019-03-04T07:41:06.598Z,12.40
2019-03-04T07:43:35.274Z,13.10
2019-03-04T07:46:04.552Z,12.53
2019-03-04T07:48:33.247Z,13.87
2019-03-04T07:51:13.658Z,13.83
2019-03-04T07:53:46.474Z,13.63
2019-03-04T07:56:13.154Z,12.67
2019-03-04T07:58:41.842Z,12.77
2019-03-04T08:01:10.621Z,13.80
2019-03-04T08:03:39.341Z,14.73
2019-03-04T08:06:08.127Z,15.50
2019-03-04T08:08:37.609Z,14.80
2019-03-04T08:11:28.775Z,14.93
2019-03-04T08:14:03.249Z,14.20
2019-03-04T08:16:31.924Z,14.50
2019-03-04T08:19:00.598Z,14.20
2019-03-04T08:21:29.272Z,14.27
2019-03-04T08:23:57.957Z,14.73
2019-03-04T08:26:26.715Z,14.30
2019-03-04T08:28:55.410Z,14.30
2019-03-04T08:31:24.092Z,13.63
2019-03-04T08:33:52.892Z,15.30
2019-03-04T08:36:21.574Z,14.30
2019-03-04T08:38:50.399Z,14.70
2019-03-04T08:41:21.882Z,14.33
2019-03-04T08:43:50.592Z,13.10
2019-03-04T08:46:19.280Z,14.03
2019-03-04T08:48:48.591Z,14.03
2019-03-04T08:51:17.304Z,15.30
2019-03-04T08:53:45.981Z,15.47
2019-03-04T08:56:14.667Z,15.13
2019-03-04T08:58:43.397Z,15.00
2019-03-04T09:01:12.166Z,15.10
2019-03-04T09:03:40.835Z,15.53
2019-03-04T09:06:09.507Z,15.88
2019-03-04T09:08:38.268Z,15.83
2019-03-04T09:11:06.946Z,15.65
2019-03-04T09:13:35.636Z,15.13
2019-03-04T09:16:04.328Z,14.33
2019-03-04T09:18:34.821Z,14.53
2019-03-04T09:21:03.519Z,14.93
2019-03-04T09:23:33.683Z,15.20
2019-03-04T09:26:08.147Z,15.98
2019-03-04T09:28:36.807Z,15.70
2019-03-04T09:31:05.584Z,15.43
2019-03-04T09:33:34.262Z,15.40
2019-03-04T09:36:02.945Z,16.75
2019-03-04T09:38:31.629Z,15.80
2019-03-04T09:41:00.401Z,16.60
2019-03-04T09:43:29.072Z,17.67
2019-03-04T09:45:57.797Z,16.42
2019-03-04T09:48:26.466Z,15.72
2019-03-04T09:50:55.156Z,15.98
2019-03-04T09:53:23.831Z,16.48
2019-03-04T09:55:52.514Z,17.45
2019-03-04T09:58:21.219Z,16.20
2019-03-04T10:00:52.825Z,16.30
2019-03-04T10:03:30.183Z,17.37
2019-03-04T10:06:31.997Z,17.27
2019-03-04T10:09:24.616Z,16.65
2019-03-04T10:12:12.323Z,15.78
2019-03-04T10:14:52.890Z,16.37
2019-03-04T10:17:39.547Z,16.70
2019-03-04T10:20:37.992Z,16.55
2019-03-04T10:23:09.591Z,16.80
2019-03-04T10:25:59.484Z,18.50
2019-03-04T10:28:49.039Z,18.07
2019-03-04T10:31:23.447Z,17.30
2019-03-04T10:34:03.531Z,17.65
2019-03-04T10:36:53.219Z,17.60
2019-03-04T10:39:30.958Z,19.62
2019-03-04T10:42:19.054Z,18.27
2019-03-04T10:45:22.488Z,18.37
2019-03-04T10:47:51.174Z,17.73
2019-03-04T10:50:20.240Z,15.48
2019-03-04T10:52:48.917Z,15.43
2019-03-04T10:55:17.595Z,14.63
2019-03-04T10:57:47.769Z,11.10
2019-03-04T11:00:18.457Z,10.88
2019-03-04T11:02:47.144Z,10.50
2019-03-04T11:05:15.936Z,10.60
2019-03-04T11:07:44.616Z,11.60
2019-03-04T11:10:14.389Z,11.63
2019-03-04T11:12:43.202Z,12.55
2019-03-04T11:15:25.691Z,12.70
2019-03-04T11:17:54.643Z,10.98
2019-03-04T11:20:23.598Z,5.47
2019-03-04T11:22:52.324Z,10.95
2019-03-04T11:25:20.960Z,9.88
2019-03-04T11:27:49.737Z,4.50
2019-03-04T11:30:22.034Z,2.83
2019-03-04T11:32:51.440Z,2.10
2019-03-04T11:35:20.119Z,2.30
2019-03-04T11:37:48.801Z,2.20
2019-03-04T11:40:22.172Z,2.45
2019-03-04T11:42:50.846Z,2.20
2019-03-04T11:45:19.627Z,3.17
2019-03-04T11:47:48.289Z,2.30
2019-03-04T11:50:17.666Z,2.33
2019-03-04T11:52:46.346Z,2.10
2019-03-04T11:55:17.520Z,2.05
2019-03-04T11:57:46.205Z,2.22
2019-03-04T12:00:18.879Z,2.02
2019-03-04T12:02:47.607Z,2.30
2019-03-04T12:05:16.291Z,2.20
2019-03-04T12:07:45.000Z,1.92
2019-03-04T12:10:15.723Z,2.27
2019-03-04T12:12:44.611Z,2.40
2019-03-04T12:15:18.540Z,2.12
2019-03-04T12:17:47.420Z,1.82
2019-03-04T12:20:17.201Z,1.72
2019-03-04T12:22:45.876Z,2.00
2019-03-04T12:25:18.796Z,2.00
2019-03-04T12:27:47.966Z,2.30
2019-03-04T12:30:19.118Z,2.05
2019-03-04T12:32:48.071Z,2.17
2019-03-04T12:35:17.241Z,2.20
2019-03-04T12:37:46.014Z,2.15
2019-03-04T12:40:18.866Z,1.95
2019-03-04T12:42:47.560Z,5.55
2019-03-04T12:45:17.076Z,2.33
2019-03-04T12:47:45.741Z,2.17
2019-03-04T12:50:23.137Z,2.25
2019-03-04T12:52:51.801Z,1.92
2019-03-04T12:55:20.576Z,2.12
2019-03-04T12:57:49.248Z,2.10
2019-03-04T13:00:26.097Z,2.40
2019-03-04T13:02:57.884Z,2.15
2019-03-04T13:05:25.258Z,2.45
2019-03-04T13:07:53.938Z,2.00
2019-03-04T13:10:22.776Z,1.72
2019-03-04T13:12:51.537Z,2.22
2019-03-04T13:15:23.125Z,2.40
2019-03-04T13:17:51.808Z,2.70
2019-03-04T13:20:22.810Z,3.17
2019-03-04T13:22:51.483Z,4.40
2019-03-04T13:25:20.160Z,3.67
2019-03-04T13:27:48.846Z,3.70
2019-03-04T13:30:20.376Z,3.65
2019-03-04T13:32:49.045Z,3.12
2019-03-04T13:35:24.820Z,3.30
2019-03-04T13:37:53.742Z,2.72
2019-03-04T13:40:22.616Z,3.10
2019-03-04T13:42:51.432Z,2.58
2019-03-04T13:45:20.305Z,2.72
2019-03-04T13:47:49.092Z,2.42
2019-03-04T13:50:26.614Z,2.67
2019-03-04T13:52:56.600Z,3.47
2019-03-04T13:55:25.631Z,2.40
2019-03-04T13:57:54.407Z,2.33
2019-03-04T14:00:28.228Z,2.40
2019-03-04T14:02:56.915Z,2.25
2019-03-04T14:05:25.625Z,2.00
2019-03-04T14:07:54.306Z,2.40
2019-03-04T14:10:25.729Z,2.37
2019-03-04T14:12:54.401Z,2.37
2019-03-04T14:15:25.981Z,2.45
2019-03-04T14:17:54.643Z,2.08
2019-03-04T14:20:23.415Z,3.60
2019-03-04T14:22:57.547Z,3.05
2019-03-04T14:25:22.467Z,5.90
2019-03-04T14:27:51.172Z,3.02
2019-03-04T14:30:21.070Z,1.80
2019-03-04T14:32:49.747Z,2.15
2019-03-04T14:35:18.418Z,2.12
2019-03-04T14:37:47.104Z,9.68
2019-03-04T14:40:17.834Z,6.45
2019-03-04T14:42:46.517Z,2.80
2019-03-04T14:45:19.902Z,2.55
2019-03-04T14:47:48.773Z,2.87
2019-03-04T14:50:18.638Z,2.30
2019-03-04T14:52:47.417Z,2.50
2019-03-04T14:55:21.690Z,2.30
2019-03-04T14:57:50.348Z,2.30
2019-03-04T15:00:36.891Z,3.60
2019-03-04T15:03:06.014Z,5.93
2019-03-04T15:05:34.745Z,2.90
2019-03-04T15:08:03.873Z,3.40
2019-03-04T15:10:32.526Z,2.70
2019-03-04T15:13:01.312Z,2.53
2019-03-04T15:15:35.024Z,2.60
2019-03-04T15:18:03.758Z,2.57
2019-03-04T15:20:34.133Z,2.30
2019-03-04T15:23:02.915Z,2.17
2019-03-04T15:25:37.140Z,2.37
2019-03-04T15:28:13.667Z,2.73
2019-03-04T15:30:44.234Z,2.87
2019-03-04T15:33:17.990Z,2.80
2019-03-04T15:35:43.685Z,2.63
2019-03-04T15:38:12.421Z,2.77
2019-03-04T15:40:41.099Z,2.23
2019-03-04T15:43:09.801Z,3.70
2019-03-04T15:45:41.066Z,6.27
2019-03-04T15:48:09.745Z,7.20
2019-03-04T15:50:38.432Z,8.20
2019-03-04T15:53:07.107Z,8.90
2019-03-04T15:55:35.797Z,9.13
2019-03-04T15:58:04.669Z,7.90
2019-03-04T16:00:33.541Z,7.93
2019-03-04T16:03:02.347Z,7.90
2019-03-04T16:05:31.119Z,7.37
2019-03-04T16:08:07.020Z,7.47
2019-03-04T16:10:34.065Z,10.73
2019-03-04T16:13:02.873Z,13.70
2019-03-04T16:15:32.000Z,10.10
2019-03-04T16:18:00.711Z,10.23
2019-03-04T16:20:29.512Z,10.43
2019-03-04T16:22:58.301Z,11.57
2019-03-04T16:25:27.308Z,11.93
2019-03-04T16:28:01.553Z,8.10
2019-03-04T16:30:30.220Z,7.23
2019-03-04T16:32:58.907Z,8.17
2019-03-04T16:35:27.589Z,7.50
2019-03-04T16:37:56.258Z,9.60
2019-03-04T16:40:25.862Z,9.27
2019-03-04T16:42:54.632Z,9.43
2019-03-04T16:45:24.221Z,9.40
2019-03-04T16:47:52.897Z,9.43
2019-03-04T16:50:30.829Z,7.77
2019-03-04T16:53:02.072Z,8.77
2019-03-04T16:55:30.735Z,9.13
2019-03-04T16:57:59.424Z,7.87
2019-03-04T17:00:28.154Z,10.53
2019-03-04T17:02:56.848Z,10.07
2019-03-04T17:05:27.128Z,8.70
2019-03-04T17:07:55.814Z,8.07
2019-03-04T17:10:26.184Z,12.43
2019-03-04T17:12:54.965Z,20.37
2019-03-04T17:15:24.436Z,22.50
2019-03-04T17:17:53.293Z,22.23
2019-03-04T17:20:21.979Z,24.40
2019-03-04T17:22:51.045Z,26.93
2019-03-04T17:25:21.164Z,26.70
2019-03-04T17:27:50.455Z,27.50
2019-03-04T17:30:24.108Z,13.97
2019-03-04T17:32:52.781Z,14.87
2019-03-04T17:35:24.595Z,15.13
2019-03-04T17:37:53.377Z,14.60
2019-03-04T17:40:26.494Z,14.73
2019-03-04T17:42:55.178Z,16.00
2019-03-04T17:45:25.926Z,17.53
2019-03-04T17:47:54.637Z,18.07
2019-03-04T17:50:31.667Z,14.60
2019-03-04T17:53:00.577Z,13.23
2019-03-04T17:55:29.251Z,14.40
2019-03-04T17:57:58.082Z,14.10
2019-03-04T18:00:26.857Z,13.63
2019-03-04T18:02:55.596Z,12.53
2019-03-04T18:05:24.297Z,14.50
2019-03-04T18:07:52.945Z,17.23
2019-03-04T18:10:21.809Z,16.10
2019-03-04T18:12:50.480Z,11.73
2019-03-04T18:15:34.272Z,14.27
2019-03-04T18:18:02.944Z,13.20
2019-03-04T18:20:34.610Z,12.27
2019-03-04T18:23:02.025Z,12.70
2019-03-04T18:25:33.608Z,13.43
2019-03-04T18:28:14.147Z,12.77
2019-03-04T18:31:03.851Z,12.90
2019-03-04T18:34:02.624Z,13.73
2019-03-04T18:36:49.329Z,13.73
2019-03-04T18:39:37.827Z,13.10
2019-03-04T18:42:24.270Z,14.00
2019-03-04T18:45:16.971Z,13.80
2019-03-04T18:47:54.133Z,12.87
2019-03-04T18:50:23.248Z,10.57
2019-03-04T18:52:52.061Z,13.37
2019-03-04T18:55:20.738Z,15.23
2019-03-04T18:57:49.450Z,15.60
2019-03-04T19:00:26.680Z,15.93
2019-03-04T19:02:55.398Z,16.57
2019-03-04T19:05:24.579Z,18.07
2019-03-04T19:07:53.255Z,16.63
2019-03-04T19:10:21.982Z,14.70
2019-03-04T19:12:50.652Z,14.17
2019-03-04T19:15:19.348Z,13.40
2019-03-04T19:17:48.034Z,13.47
2019-03-04T19:20:17.903Z,14.03
2019-03-04T19:22:46.834Z,17.07
2019-03-04T19:25:15.570Z,17.60
2019-03-04T19:27:44.576Z,15.37
2019-03-04T19:30:14.848Z,14.67
2019-03-04T19:32:43.525Z,13.90
2019-03-04T19:35:16.073Z,13.07
2019-03-04T19:37:44.911Z,15.10
2019-03-04T19:40:17.623Z,15.50
2019-03-04T19:42:46.385Z,17.73
2019-03-04T19:45:19.078Z,19.33
2019-03-04T19:47:47.868Z,18.57
2019-03-04T19:50:16.732Z,19.60
2019-03-04T19:52:47.494Z,16.50
2019-03-04T19:55:18.720Z,16.27
2019-03-04T19:57:47.493Z,17.73
2019-03-04T20:00:24.906Z,20.83
2019-03-04T20:02:53.874Z,19.33
2019-03-04T20:05:23.811Z,20.03
2019-03-04T20:07:52.594Z,18.67
2019-03-04T20:10:21.568Z,18.07
2019-03-04T20:12:50.225Z,17.27
2019-03-04T20:15:24.397Z,17.50
2019-03-04T20:17:53.379Z,16.93
2019-03-04T20:20:22.045Z,17.03
2019-03-04T20:22:50.715Z,19.17
2019-03-04T20:25:20.003Z,18.07
2019-03-04T20:27:48.822Z,18.63
2019-03-04T20:30:19.623Z,18.70
2019-03-04T20:32:48.500Z,16.17
2019-03-04T20:35:18.077Z,16.60
2019-03-04T20:37:55.804Z,13.43
2019-03-04T20:40:24.486Z,13.17
2019-03-04T20:42:53.151Z,11.77
2019-03-04T20:45:23.676Z,14.03
2019-03-04T20:47:52.360Z,12.87
2019-03-04T20:50:23.184Z,12.23
2019-03-04T20:52:52.463Z,11.67
2019-03-04T20:55:21.836Z,10.97
2019-03-04T20:57:50.579Z,10.27
2019-03-04T21:00:23.814Z,10.33
2019-03-04T21:02:53.738Z,11.20
2019-03-04T21:05:23.014Z,11.70
2019-03-04T21:07:51.919Z,12.97
2019-03-04T21:10:20.581Z,13.30
2019-03-04T21:12:50.192Z,13.73
2019-03-04T21:15:19.966Z,13.60
2019-03-04T21:17:49.546Z,14.00
2019-03-04T21:20:19.032Z,13.90
2019-03-04T21:22:48.299Z,13.13
2019-03-04T21:25:40.831Z,12.90
2019-03-04T21:28:50.897Z,10.20
2019-03-04T21:31:25.511Z,9.90
2019-03-04T21:34:05.835Z,10.47
2019-03-04T21:36:43.382Z,11.43
2019-03-04T21:39:15.066Z,9.67
2019-03-04T21:41:58.383Z,10.07
2019-03-04T21:44:47.972Z,9.90
2019-03-04T21:47:22.343Z,9.87
2019-03-04T21:49:52.307Z,10.20
2019-03-04T21:52:29.732Z,10.00
2019-03-04T21:54:58.384Z,9.97
2019-03-04T21:57:30.018Z,10.13
2019-03-04T21:59:58.676Z,9.80
2019-03-04T22:02:33.374Z,10.23
2019-03-04T22:05:04.971Z,9.37
2019-03-04T22:07:33.667Z,10.17
2019-03-04T22:10:02.344Z,9.73
2019-03-04T22:12:31.030Z,9.50
2019-03-04T22:14:59.721Z,10.00
2019-03-04T22:17:28.484Z,10.20
2019-03-04T22:19:57.265Z,11.27
2019-03-04T22:22:25.949Z,11.30
2019-03-04T22:24:54.628Z,11.00
2019-03-04T22:27:23.323Z,10.53
2019-03-04T22:29:51.963Z,11.07
2019-03-04T22:32:20.638Z,10.93
2019-03-04T22:34:49.302Z,9.97
2019-03-04T22:37:18.088Z,10.07
2019-03-04T22:39:46.756Z,10.23
2019-03-04T22:42:15.440Z,10.60
2019-03-04T22:44:44.162Z,10.63
2019-03-04T22:47:12.808Z,10.10
2019-03-04T22:49:41.529Z,10.03
2019-03-04T22:52:10.266Z,9.50
2019-03-04T22:54:39.032Z,8.77
2019-03-04T22:57:07.681Z,9.37
2019-03-04T22:59:36.717Z,9.90
2019-03-04T23:02:05.596Z,9.53
2019-03-04T23:04:34.352Z,9.17
2019-03-04T23:07:05.880Z,9.73
2019-03-04T23:09:37.459Z,9.73
2019-03-04T23:12:21.105Z,8.27
2019-03-04T23:14:50.603Z,8.80
2019-03-04T23:17:19.304Z,8.13
2019-03-04T23:19:47.986Z,9.20
2019-03-04T23:22:16.663Z,8.90
2019-03-04T23:24:45.354Z,8.20
2019-03-04T23:27:14.041Z,9.13
2019-03-04T23:29:42.700Z,8.47
2019-03-04T23:32:11.468Z,8.63
2019-03-04T23:34:40.133Z,8.77
2019-03-04T23:37:09.101Z,9.43
2019-03-04T23:39:37.778Z,9.30
2019-03-04T23:42:06.601Z,9.47
2019-03-04T23:44:35.254Z,9.63
2019-03-04T23:47:03.947Z,9.53
2019-03-04T23:49:32.635Z,9.27
2019-03-04T23:52:01.326Z,10.23
2019-03-04T23:54:30.179Z,9.97
2019-03-04T23:56:58.861Z,8.90
2019-03-04T23:59:27.548Z,9.40
